createdAt,value
2022-09-07T00:00:26.628Z,1.50
2022-09-07T00:01:50.136Z,1.45
2022-09-07T00:03:14.112Z,1.70
2022-09-07T00:04:37.913Z,1.90
2022-09-07T00:06:05.691Z,1.70
2022-09-07T00:07:29.590Z,1.60
2022-09-07T00:08:52.143Z,1.60
2022-09-07T00:10:15.765Z,1.73
2022-09-07T00:11:38.317Z,1.92
2022-09-07T00:13:01.846Z,1.40
2022-09-07T00:14:25.336Z,1.52
2022-09-07T00:15:47.911Z,1.67
2022-09-07T00:17:11.504Z,1.45
2022-09-07T00:18:35.465Z,1.48
2022-09-07T00:19:58.998Z,1.42
2022-09-07T00:21:22.832Z,1.98
2022-09-07T00:22:46.205Z,1.60
2022-09-07T00:24:10.651Z,1.45
2022-09-07T00:25:38.586Z,1.55
2022-09-07T00:27:01.250Z,1.48
2022-09-07T00:28:24.859Z,1.42
2022-09-07T00:29:48.428Z,1.60
2022-09-07T00:31:14.111Z,1.52
2022-09-07T00:32:38.308Z,2.15
2022-09-07T00:34:03.634Z,1.98
2022-09-07T00:35:26.191Z,1.40
2022-09-07T00:36:49.693Z,1.63
2022-09-07T00:38:12.307Z,1.52
2022-09-07T00:39:37.468Z,1.73
2022-09-07T00:41:00.104Z,1.90
2022-09-07T00:42:24.095Z,1.67
2022-09-07T00:43:48.989Z,1.40
2022-09-07T00:45:16.012Z,1.63
2022-09-07T00:46:43.729Z,1.42
2022-09-07T00:48:09.541Z,1.42
2022-09-07T00:49:35.185Z,1.95
2022-09-07T00:51:01.912Z,1.70
2022-09-07T00:52:26.277Z,1.65
2022-09-07T00:53:54.339Z,1.50
2022-09-07T00:55:18.039Z,1.60
2022-09-07T00:56:43.456Z,1.80
2022-09-07T00:58:07.088Z,2.40
2022-09-07T00:59:34.276Z,1.40
2022-09-07T01:00:56.892Z,1.80
2022-09-07T01:02:21.093Z,1.40
2022-09-07T01:03:48.131Z,1.63
2022-09-07T01:05:20.867Z,1.40
2022-09-07T01:06:44.855Z,1.08
2022-09-07T01:08:09.404Z,1.58
2022-09-07T01:09:32.984Z,1.60
2022-09-07T01:10:56.745Z,1.75
2022-09-07T01:12:19.300Z,1.63
2022-09-07T01:13:44.158Z,1.40
2022-09-07T01:15:07.596Z,1.73
2022-09-07T01:16:47.067Z,1.20
2022-09-07T01:18:14.351Z,1.58
2022-09-07T01:20:13.130Z,1.50
2022-09-07T01:21:46.149Z,1.75
2022-09-07T01:23:47.917Z,1.67
2022-09-07T01:25:13.511Z,1.60
2022-09-07T01:27:07.906Z,1.27
2022-09-07T01:28:34.628Z,1.20
2022-09-07T01:30:01.945Z,1.50
2022-09-07T01:31:33.492Z,1.85
2022-09-07T01:33:12.215Z,1.35
2022-09-07T01:34:35.790Z,1.67
2022-09-07T01:36:08.328Z,1.50
2022-09-07T01:37:34.544Z,1.77
2022-09-07T01:39:01.398Z,1.30
2022-09-07T01:40:34.112Z,1.58
2022-09-07T01:42:01.152Z,1.75
2022-09-07T01:43:30.208Z,1.77
2022-09-07T01:44:57.801Z,1.50
2022-09-07T01:46:24.276Z,1.60
2022-09-07T01:47:50.152Z,1.75
2022-09-07T01:49:16.530Z,1.70
2022-09-07T01:50:41.458Z,1.50
2022-09-07T01:52:07.629Z,1.48
2022-09-07T01:53:34.699Z,1.42
2022-09-07T01:55:02.340Z,1.40
2022-09-07T01:56:29.147Z,1.45
2022-09-07T01:57:55.165Z,1.58
2022-09-07T01:59:22.130Z,1.70
2022-09-07T02:00:50.768Z,1.67
2022-09-07T02:02:17.640Z,1.75
2022-09-07T02:03:44.571Z,1.23
2022-09-07T02:05:10.942Z,1.50
2022-09-07T02:06:38.267Z,1.30
2022-09-07T02:08:04.112Z,1.88
2022-09-07T02:09:31.989Z,1.33
2022-09-07T02:10:56.703Z,1.67
2022-09-07T02:12:23.506Z,1.50
2022-09-07T02:13:50.231Z,1.45
2022-09-07T02:15:16.799Z,1.60
2022-09-07T02:16:47.357Z,1.38
2022-09-07T02:18:11.596Z,1.75
2022-09-07T02:19:37.714Z,1.70
2022-09-07T02:21:01.597Z,1.60
2022-09-07T02:22:27.729Z,1.50
2022-09-07T02:23:54.994Z,1.63
2022-09-07T02:25:23.578Z,1.65
2022-09-07T02:26:50.005Z,1.33
2022-09-07T02:28:16.044Z,1.60
2022-09-07T02:29:38.638Z,1.80
2022-09-07T02:31:03.012Z,1.52
2022-09-07T02:32:27.021Z,1.45
2022-09-07T02:33:50.755Z,1.60
2022-09-07T02:35:13.353Z,1.80
2022-09-07T02:36:41.198Z,1.60
2022-09-07T02:38:05.334Z,1.40
2022-09-07T02:39:29.841Z,1.67
2022-09-07T02:40:53.010Z,1.30
2022-09-07T02:42:16.559Z,1.80
2022-09-07T02:43:39.131Z,1.50
2022-09-07T02:45:05.451Z,1.45
2022-09-07T02:46:47.291Z,1.85
2022-09-07T02:48:17.830Z,1.88
2022-09-07T02:50:04.182Z,1.73
2022-09-07T02:51:35.951Z,2.05
2022-09-07T02:53:15.279Z,1.92
2022-09-07T02:54:45.006Z,1.60
2022-09-07T02:56:16.789Z,1.40
2022-09-07T02:57:47.238Z,1.58
2022-09-07T02:59:17.375Z,1.80
2022-09-07T03:00:46.238Z,1.70
2022-09-07T03:02:15.577Z,1.88
2022-09-07T03:03:46.720Z,1.40
2022-09-07T03:05:16.664Z,1.98
2022-09-07T03:06:42.039Z,2.10
2022-09-07T03:08:08.243Z,2.30
2022-09-07T03:09:35.311Z,1.33
2022-09-07T03:10:59.806Z,1.88
2022-09-07T03:12:22.615Z,2.03
2022-09-07T03:13:46.216Z,1.80
2022-09-07T03:15:12.222Z,1.88
2022-09-07T03:16:35.753Z,1.58
2022-09-07T03:17:59.312Z,1.42
2022-09-07T03:19:24.179Z,1.85
2022-09-07T03:20:50.110Z,1.40
2022-09-07T03:22:13.615Z,1.80
2022-09-07T03:23:36.338Z,1.95
2022-09-07T03:24:59.902Z,1.77
2022-09-07T03:26:25.356Z,2.05
2022-09-07T03:27:48.839Z,1.92
2022-09-07T03:29:11.393Z,1.70
2022-09-07T03:30:35.249Z,1.65
2022-09-07T03:31:57.903Z,1.60
2022-09-07T03:33:21.420Z,1.80
2022-09-07T03:34:45.309Z,1.75
2022-09-07T03:36:09.354Z,1.77
2022-09-07T03:37:33.083Z,1.67
2022-09-07T03:38:56.165Z,1.80
2022-09-07T03:40:19.839Z,2.05
2022-09-07T03:41:42.323Z,1.95
2022-09-07T03:43:06.243Z,1.63
2022-09-07T03:44:29.924Z,2.10
2022-09-07T03:45:57.418Z,1.80
2022-09-07T03:47:20.993Z,2.00
2022-09-07T03:48:44.553Z,1.90
2022-09-07T03:50:10.153Z,1.63
2022-09-07T03:51:32.678Z,1.80
2022-09-07T03:52:56.197Z,1.67
2022-09-07T03:54:19.701Z,1.90
2022-09-07T03:55:42.166Z,1.65
2022-09-07T03:57:05.864Z,2.00
2022-09-07T03:58:30.601Z,1.88
2022-09-07T03:59:54.212Z,1.48
2022-09-07T04:01:24.046Z,1.60
2022-09-07T04:02:46.739Z,2.13
2022-09-07T04:04:10.611Z,1.83
2022-09-07T04:05:34.753Z,1.60
2022-09-07T04:06:58.263Z,2.15
2022-09-07T04:08:20.889Z,1.52
2022-09-07T04:09:44.470Z,2.20
2022-09-07T04:11:08.819Z,1.70
2022-09-07T04:12:32.315Z,1.88
2022-09-07T04:13:55.854Z,1.40
2022-09-07T04:15:19.349Z,1.95
2022-09-07T04:16:44.821Z,1.98
2022-09-07T04:18:08.473Z,1.80
2022-09-07T04:19:31.332Z,2.20
2022-09-07T04:21:00.207Z,2.00
2022-09-07T04:22:23.771Z,1.92
2022-09-07T04:23:47.450Z,1.73
2022-09-07T04:25:11.129Z,1.70
2022-09-07T04:26:37.109Z,2.15
2022-09-07T04:27:59.662Z,2.00
2022-09-07T04:29:23.220Z,2.00
2022-09-07T04:30:46.200Z,2.00
2022-09-07T04:32:15.060Z,2.00
2022-09-07T04:33:39.554Z,1.92
2022-09-07T04:35:03.129Z,1.77
2022-09-07T04:36:28.160Z,2.05
2022-09-07T04:37:51.669Z,2.58
2022-09-07T04:39:15.286Z,2.17
2022-09-07T04:40:39.113Z,2.40
2022-09-07T04:42:02.671Z,1.92
2022-09-07T04:43:25.153Z,2.20
2022-09-07T04:44:52.149Z,1.98
2022-09-07T04:46:18.931Z,2.10
2022-09-07T04:47:47.786Z,2.35
2022-09-07T04:49:12.549Z,2.25
2022-09-07T04:50:35.108Z,1.98
2022-09-07T04:52:00.001Z,2.08
2022-09-07T04:53:23.474Z,2.22
2022-09-07T04:54:50.824Z,1.73
2022-09-07T04:56:16.967Z,2.42
2022-09-07T04:57:41.008Z,1.92
2022-09-07T04:59:04.969Z,2.17
2022-09-07T05:00:27.465Z,1.88
2022-09-07T05:01:51.240Z,1.75
2022-09-07T05:03:15.000Z,2.80
2022-09-07T05:04:38.764Z,2.25
2022-09-07T05:06:01.719Z,2.50
2022-09-07T05:07:26.702Z,2.47
2022-09-07T05:08:51.999Z,1.77
2022-09-07T05:10:15.564Z,2.30
2022-09-07T05:11:39.089Z,2.30
2022-09-07T05:13:02.056Z,2.00
2022-09-07T05:14:25.622Z,2.20
2022-09-07T05:15:49.403Z,2.20
2022-09-07T05:17:12.914Z,2.22
2022-09-07T05:18:35.499Z,2.40
2022-09-07T05:19:59.125Z,2.03
2022-09-07T05:21:24.829Z,2.38
2022-09-07T05:22:49.796Z,2.08
2022-09-07T05:24:13.354Z,1.85
2022-09-07T05:25:43.278Z,2.10
2022-09-07T05:27:06.984Z,2.03
2022-09-07T05:28:31.147Z,1.98
2022-09-07T05:30:03.715Z,2.10
2022-09-07T05:31:28.503Z,2.33
2022-09-07T05:32:52.718Z,2.40
2022-09-07T05:34:32.459Z,3.08
2022-09-07T05:35:58.480Z,2.40
2022-09-07T05:37:21.981Z,2.30
2022-09-07T05:38:46.990Z,2.38
2022-09-07T05:40:11.673Z,2.35
2022-09-07T05:41:35.390Z,2.13
2022-09-07T05:42:58.949Z,2.50
2022-09-07T05:46:06.739Z,2.58
2022-09-07T05:47:31.329Z,2.20
2022-09-07T05:48:53.811Z,2.60
2022-09-07T05:50:17.627Z,2.72
2022-09-07T05:51:41.151Z,3.05
2022-09-07T05:53:04.773Z,2.33
2022-09-07T05:54:29.753Z,2.35
2022-09-07T05:55:53.252Z,2.78
2022-09-07T05:57:16.779Z,2.75
2022-09-07T05:58:40.665Z,2.33
2022-09-07T06:00:05.030Z,2.90
2022-09-07T06:01:28.981Z,2.40
2022-09-07T06:02:52.685Z,2.15
2022-09-07T06:04:16.586Z,2.97
2022-09-07T06:05:39.155Z,2.50
2022-09-07T06:07:21.029Z,2.88
2022-09-07T06:08:47.280Z,2.85
2022-09-07T06:11:55.788Z,2.55
2022-09-07T06:13:21.463Z,2.42
2022-09-07T06:14:45.049Z,2.78
2022-09-07T06:16:09.779Z,3.20
2022-09-07T06:17:33.542Z,2.80
2022-09-07T06:18:57.329Z,3.13
2022-09-07T06:20:20.022Z,2.38
2022-09-07T06:21:43.576Z,2.35
2022-09-07T06:23:07.246Z,2.47
2022-09-07T06:24:30.810Z,2.55
2022-09-07T06:25:55.764Z,3.53
2022-09-07T06:27:18.397Z,2.90
2022-09-07T06:28:43.401Z,2.55
2022-09-07T06:30:07.833Z,2.97
2022-09-07T06:31:31.532Z,2.85
2022-09-07T06:32:55.152Z,2.83
2022-09-07T06:34:18.819Z,2.53
2022-09-07T06:35:42.381Z,2.72
2022-09-07T06:37:06.132Z,2.67
2022-09-07T06:38:32.190Z,2.92
2022-09-07T06:39:55.754Z,3.05
2022-09-07T06:43:06.738Z,2.40
2022-09-07T06:44:31.057Z,3.10
2022-09-07T06:45:55.348Z,2.45
2022-09-07T06:47:17.956Z,2.75
2022-09-07T06:48:44.438Z,2.28
2022-09-07T06:50:10.179Z,2.50
2022-09-07T06:51:33.725Z,2.67
2022-09-07T06:56:21.179Z,3.47
2022-09-07T06:57:43.683Z,2.55
2022-09-07T06:59:07.174Z,2.63
2022-09-07T07:00:30.674Z,2.38
2022-09-07T07:01:54.263Z,2.80
2022-09-07T07:03:17.166Z,2.83
2022-09-07T07:04:41.444Z,2.92
2022-09-07T07:06:05.635Z,2.70
2022-09-07T07:07:29.551Z,2.75
2022-09-07T07:08:55.402Z,3.67
2022-09-07T07:10:24.294Z,2.72
2022-09-07T07:11:49.762Z,2.47
2022-09-07T07:14:38.449Z,2.70
2022-09-07T07:16:04.847Z,2.97
2022-09-07T07:17:28.543Z,2.67
2022-09-07T07:18:55.440Z,2.80
2022-09-07T07:20:18.926Z,3.38
2022-09-07T07:22:07.916Z,2.72
2022-09-07T07:23:26.032Z,2.97
2022-09-07T07:24:48.542Z,2.95
2022-09-07T07:26:14.543Z,2.53
2022-09-07T07:27:38.424Z,2.50
2022-09-07T07:29:03.388Z,2.78
2022-09-07T07:30:27.811Z,2.60
2022-09-07T07:31:51.374Z,2.55
2022-09-07T07:33:13.974Z,3.08
2022-09-07T07:34:37.653Z,2.95
2022-09-07T07:36:15.379Z,3.08
2022-09-07T07:37:39.013Z,2.83
2022-09-07T07:39:02.995Z,3.08
2022-09-07T07:40:31.007Z,3.10
2022-09-07T07:41:57.626Z,2.95
2022-09-07T07:43:24.221Z,3.00
2022-09-07T07:44:48.024Z,3.33
2022-09-07T07:46:14.830Z,3.25
2022-09-07T07:47:38.463Z,2.67
2022-09-07T07:49:02.023Z,3.15
2022-09-07T07:50:34.580Z,3.25
2022-09-07T07:53:43.485Z,3.17
2022-09-07T07:56:51.788Z,3.53
2022-09-07T07:58:14.299Z,2.90
2022-09-07T07:59:39.376Z,3.05
2022-09-07T08:01:04.177Z,2.88
2022-09-07T08:02:28.362Z,3.03
2022-09-07T08:03:51.965Z,3.03
2022-09-07T08:05:17.046Z,2.97
2022-09-07T08:06:44.013Z,3.05
2022-09-07T08:08:07.507Z,2.40
2022-09-07T08:09:31.064Z,2.72
2022-09-07T08:10:53.695Z,3.22
2022-09-07T08:12:20.065Z,3.10
2022-09-07T08:13:45.043Z,3.47
2022-09-07T08:15:10.728Z,3.15
2022-09-07T08:16:35.064Z,3.55
2022-09-07T08:17:58.657Z,2.65
2022-09-07T08:19:22.010Z,3.08
2022-09-07T08:20:45.405Z,3.30
2022-09-07T08:22:09.153Z,3.10
2022-09-07T08:23:33.422Z,3.15
2022-09-07T08:24:56.783Z,3.05
2022-09-07T08:26:20.729Z,3.97
2022-09-07T08:27:44.146Z,3.28
2022-09-07T08:29:07.508Z,3.40
2022-09-07T08:30:32.305Z,3.10
2022-09-07T08:31:55.845Z,3.40
2022-09-07T08:33:19.609Z,3.25
2022-09-07T08:34:42.944Z,3.53
2022-09-07T08:36:08.554Z,3.00
2022-09-07T08:37:30.987Z,3.65
2022-09-07T08:38:54.364Z,3.85
2022-09-07T08:40:18.651Z,3.60
2022-09-07T08:42:08.391Z,3.33
2022-09-07T08:43:49.000Z,3.50
2022-09-07T08:45:17.019Z,3.38
2022-09-07T08:46:46.720Z,3.03
2022-09-07T08:48:12.131Z,3.20
2022-09-07T08:49:55.056Z,3.13
2022-09-07T08:51:33.902Z,3.25
2022-09-07T08:52:59.280Z,3.35
2022-09-07T08:54:22.885Z,3.40
2022-09-07T08:55:50.629Z,3.67
2022-09-07T08:57:24.179Z,3.70
2022-09-07T08:58:50.177Z,4.20
2022-09-07T09:00:23.072Z,3.40
2022-09-07T09:02:27.030Z,3.70
2022-09-07T09:03:33.393Z,3.50
2022-09-07T09:06:45.538Z,3.65
2022-09-07T09:08:36.674Z,3.42
2022-09-07T09:10:13.868Z,3.90
2022-09-07T09:11:45.994Z,3.33
2022-09-07T09:13:16.696Z,3.47
2022-09-07T09:14:50.023Z,3.67
2022-09-07T09:16:19.282Z,3.78
2022-09-07T09:17:48.163Z,3.58
2022-09-07T09:19:26.691Z,3.28
2022-09-07T09:20:52.061Z,3.67
2022-09-07T09:22:17.286Z,4.00
2022-09-07T09:23:42.957Z,3.83
2022-09-07T09:25:17.186Z,4.18
2022-09-07T09:26:42.041Z,3.70
2022-09-07T09:28:05.437Z,3.75
2022-09-07T09:29:28.880Z,3.45
2022-09-07T09:30:52.379Z,3.13
2022-09-07T09:32:37.675Z,3.50
2022-09-07T09:34:14.324Z,3.88
2022-09-07T09:35:37.671Z,3.25
2022-09-07T09:37:01.088Z,3.38
2022-09-07T09:38:30.032Z,4.20
2022-09-07T09:40:02.297Z,3.72
2022-09-07T09:41:26.507Z,4.22
2022-09-07T09:42:49.953Z,4.00
2022-09-07T09:44:17.069Z,3.20
2022-09-07T09:47:32.436Z,3.70
2022-09-07T09:48:58.123Z,3.88
2022-09-07T09:52:29.832Z,3.97
2022-09-07T09:53:59.239Z,3.90
2022-09-07T09:55:35.103Z,3.80
2022-09-07T09:56:59.468Z,3.70
2022-09-07T10:00:27.887Z,3.92
2022-09-07T10:05:30.548Z,4.32
2022-09-07T10:06:56.087Z,3.60
2022-09-07T10:08:21.777Z,4.25
2022-09-07T10:09:51.434Z,3.67
2022-09-07T10:11:15.587Z,4.30
2022-09-07T10:12:47.176Z,4.20
2022-09-07T10:14:17.788Z,4.40
2022-09-07T10:15:41.807Z,3.88
2022-09-07T10:17:13.954Z,4.43
2022-09-07T10:18:40.350Z,4.22
2022-09-07T10:20:24.752Z,3.75
2022-09-07T10:21:56.855Z,4.45
2022-09-07T10:23:23.287Z,4.53
2022-09-07T10:24:46.800Z,3.75
2022-09-07T10:26:28.475Z,4.50
2022-09-07T10:28:03.472Z,4.20
2022-09-07T10:29:30.958Z,4.20
2022-09-07T10:31:04.127Z,4.85
2022-09-07T10:32:41.592Z,4.18
2022-09-07T10:35:54.890Z,4.18
2022-09-07T10:37:26.900Z,4.40
2022-09-07T10:38:56.779Z,3.95
2022-09-07T10:40:29.767Z,4.93
2022-09-07T10:41:59.360Z,4.68
2022-09-07T10:43:31.215Z,4.57
2022-09-07T10:45:03.781Z,4.65
2022-09-07T10:47:01.915Z,4.80
2022-09-07T10:48:28.918Z,4.53
2022-09-07T10:51:45.946Z,4.88
2022-09-07T10:53:42.763Z,4.43
2022-09-07T10:55:12.513Z,4.68
2022-09-07T10:56:40.085Z,4.70
2022-09-07T10:58:16.405Z,4.45
2022-09-07T11:01:43.911Z,5.18
2022-09-07T11:03:25.960Z,5.28
2022-09-07T11:04:58.593Z,5.07
2022-09-07T11:06:25.524Z,5.32
2022-09-07T11:07:58.270Z,4.32
2022-09-07T11:09:51.228Z,4.95
2022-09-07T11:12:00.328Z,4.28
2022-09-07T11:13:07.136Z,5.13
2022-09-07T11:14:32.776Z,4.90
2022-09-07T11:15:58.371Z,4.80
2022-09-07T11:17:24.508Z,4.50
2022-09-07T11:18:52.081Z,5.43
2022-09-07T11:20:24.009Z,5.10
2022-09-07T11:21:59.779Z,4.57
2022-09-07T11:23:27.852Z,4.45
2022-09-07T11:26:43.992Z,4.95
2022-09-07T11:28:13.517Z,4.38
2022-09-07T11:29:42.131Z,4.70
2022-09-07T11:31:12.474Z,4.40
2022-09-07T11:32:37.819Z,4.65
2022-09-07T11:35:50.675Z,4.93
2022-09-07T11:37:20.070Z,5.10
2022-09-07T11:38:46.052Z,4.72
2022-09-07T11:40:23.848Z,4.63
2022-09-07T11:41:50.395Z,4.28
2022-09-07T11:43:19.800Z,4.75
2022-09-07T11:44:46.992Z,4.60
2022-09-07T11:46:15.196Z,4.88
2022-09-07T11:47:40.809Z,5.00
2022-09-07T11:49:07.305Z,4.85
2022-09-07T11:50:33.874Z,4.63
2022-09-07T11:52:05.105Z,4.97
2022-09-07T11:53:29.772Z,5.43
2022-09-07T11:54:56.031Z,4.85
2022-09-07T11:56:24.577Z,4.82
2022-09-07T11:58:14.121Z,5.07
2022-09-07T11:59:46.991Z,4.55
2022-09-07T12:01:16.226Z,5.53
2022-09-07T12:03:07.484Z,5.10
2022-09-07T12:04:56.740Z,5.00
2022-09-07T12:06:40.742Z,5.93
2022-09-07T12:08:13.488Z,5.43
2022-09-07T12:10:03.538Z,4.35
2022-09-07T12:11:44.477Z,5.20
2022-09-07T12:13:38.543Z,5.22
2022-09-07T12:15:15.323Z,5.40
2022-09-07T12:16:51.011Z,5.55
2022-09-07T12:18:26.336Z,5.45
2022-09-07T12:20:15.137Z,5.30
2022-09-07T12:21:42.684Z,4.65
2022-09-07T12:23:14.601Z,5.05
2022-09-07T12:24:43.716Z,4.93
2022-09-07T12:26:53.177Z,5.32
2022-09-07T12:28:21.792Z,4.70
2022-09-07T12:29:45.762Z,5.60
2022-09-07T12:31:14.496Z,4.63
2022-09-07T12:33:05.954Z,4.57
2022-09-07T12:34:55.516Z,5.03
2022-09-07T12:36:41.222Z,5.43
2022-09-07T12:38:06.712Z,5.00
2022-09-07T12:39:32.358Z,5.13
2022-09-07T12:41:02.458Z,5.45
2022-09-07T12:42:32.268Z,5.18
2022-09-07T12:44:08.256Z,5.25
2022-09-07T12:45:53.125Z,5.43
2022-09-07T12:47:29.420Z,5.60
2022-09-07T12:48:58.816Z,5.13
2022-09-07T12:50:28.491Z,4.78
2022-09-07T12:52:06.792Z,5.45
2022-09-07T12:53:35.113Z,5.30
2022-09-07T12:55:26.493Z,5.90
2022-09-07T12:58:51.275Z,5.97
2022-09-07T13:00:18.083Z,5.43
2022-09-07T13:01:47.645Z,4.20
2022-09-07T13:03:51.812Z,5.03
2022-09-07T13:05:20.965Z,4.80
2022-09-07T13:07:03.961Z,4.75
2022-09-07T13:08:44.513Z,5.85
2022-09-07T13:10:21.345Z,5.05
2022-09-07T13:11:45.632Z,5.22
2022-09-07T13:14:01.244Z,5.78
2022-09-07T13:15:05.561Z,5.05
2022-09-07T13:17:15.537Z,5.00
2022-09-07T13:18:40.230Z,5.47
2022-09-07T13:20:34.839Z,13.93
2022-09-07T13:22:01.429Z,5.60
2022-09-07T13:23:26.658Z,7.22
2022-09-07T13:24:56.724Z,8.48
2022-09-07T13:26:53.291Z,8.73
2022-09-07T13:28:33.178Z,7.82
2022-09-07T13:29:58.556Z,6.82
2022-09-07T13:31:43.213Z,7.28
2022-09-07T13:33:40.058Z,5.28
2022-09-07T13:35:13.625Z,6.05
2022-09-07T13:36:40.217Z,4.60
2022-09-07T13:38:04.688Z,5.65
2022-09-07T13:39:28.858Z,6.65
2022-09-07T13:40:54.660Z,8.07
2022-09-07T13:42:19.815Z,9.70
2022-09-07T13:43:48.301Z,7.25
2022-09-07T13:45:29.370Z,13.98
2022-09-07T13:47:01.404Z,6.55
2022-09-07T13:48:28.211Z,6.15
2022-09-07T13:50:00.335Z,6.18
2022-09-07T13:51:28.438Z,5.40
2022-09-07T13:53:24.113Z,5.53
2022-09-07T13:55:09.424Z,5.72
2022-09-07T13:56:39.809Z,5.32
2022-09-07T13:58:14.249Z,5.43
2022-09-07T13:59:37.960Z,5.55
2022-09-07T14:01:03.832Z,12.13
2022-09-07T14:02:29.963Z,8.32
2022-09-07T14:03:55.860Z,6.35
2022-09-07T14:05:20.888Z,5.35
2022-09-07T14:06:44.277Z,5.78
2022-09-07T14:08:22.547Z,6.10
2022-09-07T14:09:47.169Z,4.82
2022-09-07T14:11:19.527Z,4.70
2022-09-07T14:12:44.533Z,4.70
2022-09-07T14:14:08.070Z,5.40
2022-09-07T14:15:36.098Z,5.28
2022-09-07T14:17:07.208Z,4.90
2022-09-07T14:18:33.170Z,4.75
2022-09-07T14:20:00.040Z,5.00
2022-09-07T14:21:23.447Z,4.68
2022-09-07T14:22:52.000Z,4.72
2022-09-07T14:24:22.893Z,5.20
2022-09-07T14:27:34.877Z,5.05
2022-09-07T14:28:58.986Z,4.88
2022-09-07T14:30:26.336Z,4.80
2022-09-07T14:31:49.800Z,4.72
2022-09-07T14:33:17.261Z,4.80
2022-09-07T14:34:43.215Z,4.88
2022-09-07T14:36:29.532Z,4.93
2022-09-07T14:37:50.108Z,4.90
2022-09-07T14:39:13.008Z,4.80
2022-09-07T14:40:36.755Z,4.43
2022-09-07T14:42:00.236Z,4.28
2022-09-07T14:43:29.754Z,5.10
2022-09-07T14:45:19.612Z,4.78
2022-09-07T14:46:53.087Z,4.53
2022-09-07T14:48:20.503Z,5.38
2022-09-07T14:49:52.032Z,4.80
2022-09-07T14:51:32.734Z,4.55
2022-09-07T14:54:42.815Z,4.78
2022-09-07T14:56:09.997Z,4.80
2022-09-07T14:57:33.652Z,5.03
2022-09-07T14:58:57.108Z,4.78
2022-09-07T15:00:27.650Z,5.10
2022-09-07T15:01:51.069Z,4.72
2022-09-07T15:03:28.385Z,4.50
2022-09-07T15:05:17.975Z,4.35
2022-09-07T15:08:41.461Z,4.97
2022-09-07T15:10:13.674Z,4.15
2022-09-07T15:11:38.229Z,4.68
2022-09-07T15:13:01.655Z,5.28
2022-09-07T15:14:25.162Z,4.85
2022-09-07T15:15:58.515Z,4.30
2022-09-07T15:19:24.622Z,4.43
2022-09-07T15:20:49.415Z,4.60
2022-09-07T15:22:13.666Z,4.70
2022-09-07T15:23:37.154Z,4.63
2022-09-07T15:25:00.573Z,4.65
2022-09-07T15:28:08.377Z,4.80
2022-09-07T15:29:32.482Z,4.38
2022-09-07T15:32:39.870Z,4.43
2022-09-07T15:34:03.849Z,4.43
2022-09-07T15:35:27.787Z,5.45
2022-09-07T15:36:56.134Z,5.47
2022-09-07T15:40:04.025Z,4.93
2022-09-07T15:41:28.432Z,5.25
2022-09-07T15:43:19.671Z,4.68
2022-09-07T15:44:34.362Z,4.72
2022-09-07T15:45:57.810Z,4.80
2022-09-07T15:49:04.671Z,4.55
2022-09-07T15:50:28.083Z,5.57
2022-09-07T15:52:08.162Z,5.13
2022-09-07T15:55:17.601Z,3.85
2022-09-07T15:56:42.328Z,4.60
2022-09-07T15:58:11.924Z,4.18
2022-09-07T15:59:35.662Z,4.78
2022-09-07T16:04:28.904Z,4.97
2022-09-07T16:05:53.180Z,4.75
2022-09-07T16:07:16.981Z,5.28
2022-09-07T16:08:41.145Z,4.90
2022-09-07T16:10:06.040Z,4.70
2022-09-07T16:11:29.939Z,4.38
2022-09-07T16:13:02.415Z,5.05
2022-09-07T16:14:27.196Z,4.05
2022-09-07T16:15:49.788Z,4.53
2022-09-07T16:17:36.573Z,4.25
2022-09-07T16:19:01.884Z,4.90
2022-09-07T16:20:24.549Z,4.78
2022-09-07T16:21:47.931Z,4.72
2022-09-07T16:23:15.245Z,4.50
2022-09-07T16:24:39.540Z,4.60
2022-09-07T16:26:04.489Z,4.32
2022-09-07T16:27:32.139Z,4.68
2022-09-07T16:28:56.326Z,5.38
2022-09-07T16:30:18.807Z,4.30
2022-09-07T16:32:43.903Z,4.93
2022-09-07T16:33:35.734Z,4.18
2022-09-07T16:35:00.203Z,4.63
2022-09-07T16:36:23.820Z,4.38
2022-09-07T16:39:32.256Z,4.50
2022-09-07T16:40:55.894Z,4.85
2022-09-07T16:42:19.251Z,4.72
2022-09-07T16:43:42.640Z,4.80
2022-09-07T16:46:50.667Z,4.75
2022-09-07T16:48:13.194Z,4.47
2022-09-07T16:49:36.565Z,4.53
2022-09-07T16:51:02.629Z,4.38
2022-09-07T16:52:26.668Z,4.30
2022-09-07T16:53:51.055Z,5.22
2022-09-07T16:55:15.942Z,5.30
2022-09-07T16:56:39.446Z,4.47
2022-09-07T16:59:46.235Z,4.68
2022-09-07T17:01:10.928Z,4.47
2022-09-07T17:02:34.349Z,4.55
2022-09-07T17:03:58.107Z,5.00
2022-09-07T17:05:21.519Z,5.45
2022-09-07T17:06:45.039Z,4.60
2022-09-07T17:08:08.392Z,4.88
2022-09-07T17:09:31.895Z,4.55
2022-09-07T17:11:00.721Z,5.32
2022-09-07T17:12:24.192Z,5.47
2022-09-07T17:13:48.736Z,5.05
2022-09-07T17:15:13.127Z,4.95
2022-09-07T17:16:39.154Z,4.65
2022-09-07T17:18:02.664Z,5.20
2022-09-07T17:19:29.428Z,4.90
2022-09-07T17:20:58.539Z,4.75
2022-09-07T17:22:22.135Z,4.82
2022-09-07T17:23:51.892Z,5.55
2022-09-07T17:25:18.521Z,3.42
2022-09-07T17:26:43.270Z,4.53
2022-09-07T17:28:05.745Z,5.10
2022-09-07T17:29:31.107Z,4.38
2022-09-07T17:30:56.967Z,3.65
2022-09-07T17:32:25.140Z,3.88
2022-09-07T17:33:49.698Z,3.60
2022-09-07T17:35:13.945Z,3.10
2022-09-07T17:36:37.333Z,3.10
2022-09-07T17:38:01.341Z,3.22
2022-09-07T17:39:24.968Z,3.08
2022-09-07T17:40:48.437Z,2.60
2022-09-07T17:42:13.323Z,2.55
2022-09-07T17:43:45.220Z,2.30
2022-09-07T17:45:09.929Z,2.05
2022-09-07T17:46:33.412Z,2.10
2022-09-07T17:47:56.802Z,2.35
2022-09-07T17:49:20.275Z,1.88
2022-09-07T17:50:43.707Z,1.88
2022-09-07T17:52:07.175Z,2.13
2022-09-07T17:53:30.730Z,2.72
2022-09-07T17:54:55.416Z,2.65
2022-09-07T17:56:18.794Z,2.42
2022-09-07T17:57:43.560Z,2.67
2022-09-07T18:00:51.023Z,2.83
2022-09-07T18:02:14.819Z,2.85
2022-09-07T18:03:38.674Z,3.17
2022-09-07T18:05:02.340Z,3.60
2022-09-07T18:06:26.664Z,2.92
2022-09-07T18:07:50.029Z,3.40
2022-09-07T18:09:14.297Z,2.95
2022-09-07T18:12:22.557Z,2.72
2022-09-07T18:13:51.680Z,3.35
2022-09-07T18:15:16.115Z,3.08
2022-09-07T18:16:39.629Z,2.85
2022-09-07T18:18:03.045Z,3.20
2022-09-07T18:19:26.413Z,3.00
2022-09-07T18:20:49.809Z,4.55
2022-09-07T18:22:13.848Z,3.95
2022-09-07T18:23:38.592Z,3.25
2022-09-07T18:25:03.472Z,3.38
2022-09-07T18:26:27.419Z,3.55
2022-09-07T18:29:03.361Z,3.53
2022-09-07T18:29:36.032Z,3.15
2022-09-07T18:31:05.346Z,3.40
2022-09-07T18:32:29.489Z,3.40
2022-09-07T18:33:54.225Z,3.83
2022-09-07T18:35:17.644Z,3.58
2022-09-07T18:36:43.719Z,3.80
2022-09-07T18:38:07.297Z,4.35
2022-09-07T18:39:30.910Z,4.13
2022-09-07T18:41:02.258Z,4.10
2022-09-07T18:42:25.734Z,3.92
2022-09-07T18:43:49.351Z,4.05
2022-09-07T18:45:29.937Z,4.35
2022-09-07T18:46:53.283Z,3.65
2022-09-07T18:48:16.718Z,3.90
2022-09-07T18:49:40.096Z,3.88
2022-09-07T18:51:04.253Z,4.80
2022-09-07T18:54:10.946Z,4.20
2022-09-07T18:55:34.944Z,4.20
2022-09-07T18:56:58.452Z,5.25
2022-09-07T18:58:22.126Z,4.78
2022-09-07T18:59:45.531Z,4.30
2022-09-07T19:01:12.389Z,4.88
2022-09-07T19:02:35.771Z,4.82
2022-09-07T19:03:59.605Z,4.57
2022-09-07T19:07:06.424Z,3.92
2022-09-07T19:08:31.751Z,4.22
2022-09-07T19:09:55.132Z,4.38
2022-09-07T19:11:20.299Z,4.13
2022-09-07T19:12:45.869Z,4.80
2022-09-07T19:14:09.940Z,4.88
2022-09-07T19:15:37.378Z,4.55
2022-09-07T19:17:02.484Z,3.97
2022-09-07T19:18:25.953Z,4.07
2022-09-07T19:19:48.555Z,5.03
2022-09-07T19:21:16.581Z,4.45
2022-09-07T19:22:40.243Z,4.25
2022-09-07T19:24:05.307Z,4.63
2022-09-07T19:25:28.709Z,4.50
2022-09-07T19:26:58.057Z,4.90
2022-09-07T19:28:23.489Z,5.28
2022-09-07T19:29:46.853Z,4.60
2022-09-07T19:31:10.808Z,5.15
2022-09-07T19:32:35.961Z,4.43
2022-09-07T19:33:59.802Z,4.60
2022-09-07T19:35:23.243Z,4.47
2022-09-07T19:36:46.662Z,5.10
2022-09-07T19:38:10.496Z,4.47
2022-09-07T19:39:33.966Z,4.90
2022-09-07T19:40:58.116Z,5.30
2022-09-07T19:42:20.750Z,5.07
2022-09-07T19:43:44.971Z,5.82
2022-09-07T19:45:09.557Z,4.40
2022-09-07T19:46:32.985Z,4.97
2022-09-07T19:47:57.802Z,5.47
2022-09-07T19:49:21.205Z,4.90
2022-09-07T19:50:46.676Z,4.35
2022-09-07T19:52:10.065Z,5.05
2022-09-07T19:53:34.223Z,5.20
2022-09-07T19:55:00.231Z,4.60
2022-09-07T19:56:24.048Z,4.93
2022-09-07T19:57:47.701Z,4.93
2022-09-07T19:59:11.161Z,5.35
2022-09-07T20:00:37.599Z,4.45
2022-09-07T20:02:00.964Z,4.72
2022-09-07T20:03:25.747Z,5.13
2022-09-07T20:04:49.170Z,3.97
2022-09-07T20:06:14.511Z,4.72
2022-09-07T20:07:37.877Z,4.97
2022-09-07T20:09:02.397Z,4.57
2022-09-07T20:10:25.724Z,5.68
2022-09-07T20:11:49.448Z,5.30
2022-09-07T20:13:12.789Z,4.82
2022-09-07T20:14:36.221Z,4.47
2022-09-07T20:15:59.935Z,4.82
2022-09-07T20:17:23.311Z,4.88
2022-09-07T20:18:48.200Z,5.22
2022-09-07T20:20:11.868Z,4.75
2022-09-07T20:21:36.769Z,4.88
2022-09-07T20:23:00.151Z,4.82
2022-09-07T20:24:23.672Z,3.92
2022-09-07T20:25:56.297Z,4.80
2022-09-07T20:27:20.072Z,5.00
2022-09-07T20:28:43.343Z,4.00
2022-09-07T20:30:07.790Z,5.00
2022-09-07T20:31:31.183Z,5.13